sensor_id;sensor_type;location;lat;lon;timestamp;pressure;altitude;pressure_sealevel;temperature;humidity
13934;BME280;7039;52.168;9.866;2022-09-17T00:00:58;99714.94;;;11.28;100.00
13934;BME280;7039;52.168;9.866;2022-09-17T00:03:24;99707.56;;;11.35;100.00
13934;BME280;7039;52.168;9.866;2022-09-17T00:05:57;99712.78;;;11.35;100.00
13934;BME280;7039;52.168;9.866;2022-09-17T00:08:24;99719.16;;;11.31;100.00
13934;BME280;7039;52.168;9.866;2022-09-17T00:10:51;99722.28;;;11.36;100.00
13934;BME280;7039;52.168;9.866;2022-09-17T00:13:17;99720.81;;;11.32;100.00
13934;BME280;7039;52.168;9.866;2022-09-17T00:15:45;99726.47;;;11.39;100.00
13934;BME280;7039;52.168;9.866;2022-09-17T00:18:14;99724.41;;;11.44;100.00
13934;BME280;7039;52.168;9.866;2022-09-17T00:20:42;99728.78;;;11.43;100.00
13934;BME280;7039;52.168;9.866;2022-09-17T00:23:09;99731.19;;;11.46;100.00
13934;BME280;7039;52.168;9.866;2022-09-17T00:25:36;99728.69;;;11.45;100.00
13934;BME280;7039;52.168;9.866;2022-09-17T00:28:03;99734.53;;;11.48;100.00
13934;BME280;7039;52.168;9.866;2022-09-17T00:30:30;99743.00;;;11.52;100.00
13934;BME280;7039;52.168;9.866;2022-09-17T00:32:56;99739.88;;;11.47;100.00
13934;BME280;7039;52.168;9.866;2022-09-17T00:35:24;99741.44;;;11.49;100.00
13934;BME280;7039;52.168;9.866;2022-09-17T00:37:51;99743.19;;;11.49;100.00
13934;BME280;7039;52.168;9.866;2022-09-17T00:40:18;99737.66;;;11.41;100.00
13934;BME280;7039;52.168;9.866;2022-09-17T00:42:45;99745.19;;;11.45;100.00
13934;BME280;7039;52.168;9.866;2022-09-17T00:45:13;99748.41;;;11.49;100.00
13934;BME280;7039;52.168;9.866;2022-09-17T00:47:41;99748.63;;;11.46;100.00
13934;BME280;7039;52.168;9.866;2022-09-17T00:50:13;99744.88;;;11.50;100.00
13934;BME280;7039;52.168;9.866;2022-09-17T00:52:45;99747.59;;;11.48;100.00
13934;BME280;7039;52.168;9.866;2022-09-17T00:55:15;99749.38;;;11.48;100.00
13934;BME280;7039;52.168;9.866;2022-09-17T00:57:43;99755.34;;;11.50;100.00
13934;BME280;7039;52.168;9.866;2022-09-17T01:00:12;99747.59;;;11.48;100.00
13934;BME280;7039;52.168;9.866;2022-09-17T01:02:40;99744.38;;;11.45;100.00
13934;BME280;7039;52.168;9.866;2022-09-17T01:05:08;99746.97;;;11.45;100.00
13934;BME280;7039;52.168;9.866;2022-09-17T01:07:47;99743.41;;;11.46;100.00
13934;BME280;7039;52.168;9.866;2022-09-17T01:10:33;99751.25;;;11.46;100.00
13934;BME280;7039;52.168;9.866;2022-09-17T01:13:13;99748.84;;;11.43;100.00
13934;BME280;7039;52.168;9.866;2022-09-17T01:15:45;99753.53;;;11.38;100.00
13934;BME280;7039;52.168;9.866;2022-09-17T01:18:33;99749.44;;;11.34;100.00
13934;BME280;7039;52.168;9.866;2022-09-17T01:21:28;99752.06;;;11.34;100.00
13934;BME280;7039;52.168;9.866;2022-09-17T01:24:30;99753.53;;;11.38;100.00
13934;BME280;7039;52.168;9.866;2022-09-17T01:30:51;99749.03;;;11.40;100.00
13934;BME280;7039;52.168;9.866;2022-09-17T01:33:25;99751.63;;;11.40;100.00
13934;BME280;7039;52.168;9.866;2022-09-17T01:36:00;99749.16;;;11.38;100.00
13934;BME280;7039;52.168;9.866;2022-09-17T01:38:33;99756.03;;;11.39;99.91
13934;BME280;7039;52.168;9.866;2022-09-17T01:41:05;99753.63;;;11.36;100.00
13934;BME280;7039;52.168;9.866;2022-09-17T01:43:37;99760.94;;;11.44;99.61
13934;BME280;7039;52.168;9.866;2022-09-17T01:46:13;99761.06;;;11.42;99.22
13934;BME280;7039;52.168;9.866;2022-09-17T01:48:45;99765.03;;;11.48;98.88
13934;BME280;7039;52.168;9.866;2022-09-17T01:51:16;99758.47;;;11.55;98.77
13934;BME280;7039;52.168;9.866;2022-09-17T01:53:48;99774.53;;;11.49;99.14
13934;BME280;7039;52.168;9.866;2022-09-17T01:56:28;99760.22;;;11.42;99.12
13934;BME280;7039;52.168;9.866;2022-09-17T01:58:59;99775.56;;;11.46;98.62
13934;BME280;7039;52.168;9.866;2022-09-17T02:01:30;99762.63;;;11.45;98.29
13934;BME280;7039;52.168;9.866;2022-09-17T02:04:00;99770.91;;;11.52;98.42
13934;BME280;7039;52.168;9.866;2022-09-17T02:06:30;99774.66;;;11.47;98.25
13934;BME280;7039;52.168;9.866;2022-09-17T02:09:00;99771.31;;;11.45;98.40
13934;BME280;7039;52.168;9.866;2022-09-17T02:11:32;99769.44;;;11.47;98.31
13934;BME280;7039;52.168;9.866;2022-09-17T02:14:04;99765.69;;;11.52;97.59
13934;BME280;7039;52.168;9.866;2022-09-17T02:16:35;99771.91;;;11.49;97.77
13934;BME280;7039;52.168;9.866;2022-09-17T02:19:05;99768.31;;;11.52;97.67
13934;BME280;7039;52.168;9.866;2022-09-17T02:21:37;99766.81;;;11.47;97.11
13934;BME280;7039;52.168;9.866;2022-09-17T02:24:11;99775.19;;;11.53;96.70
13934;BME280;7039;52.168;9.866;2022-09-17T02:26:45;99772.56;;;11.53;97.12
13934;BME280;7039;52.168;9.866;2022-09-17T02:29:20;99776.88;;;11.54;96.71
13934;BME280;7039;52.168;9.866;2022-09-17T02:31:49;99770.91;;;11.52;96.57
13934;BME280;7039;52.168;9.866;2022-09-17T02:34:16;99779.38;;;11.55;96.36
13934;BME280;7039;52.168;9.866;2022-09-17T02:36:43;99782.94;;;11.54;96.36
13934;BME280;7039;52.168;9.866;2022-09-17T02:39:09;99784.41;;;11.58;96.18
13934;BME280;7039;52.168;9.866;2022-09-17T02:41:43;99776.88;;;11.54;96.21
13934;BME280;7039;52.168;9.866;2022-09-17T02:44:21;99789.63;;;11.58;96.17
13934;BME280;7039;52.168;9.866;2022-09-17T02:50:11;99797.25;;;11.61;95.46
13934;BME280;7039;52.168;9.866;2022-09-17T02:52:52;99795.38;;;11.63;95.36
13934;BME280;7039;52.168;9.866;2022-09-17T02:55:28;99797.69;;;11.68;94.21
13934;BME280;7039;52.168;9.866;2022-09-17T02:58:05;99792.13;;;11.60;94.87
13934;BME280;7039;52.168;9.866;2022-09-17T03:00:37;99804.78;;;11.66;94.90
13934;BME280;7039;52.168;9.866;2022-09-17T03:03:09;99801.00;;;11.57;94.87
13934;BME280;7039;52.168;9.866;2022-09-17T03:05:38;99797.13;;;11.50;95.23
13934;BME280;7039;52.168;9.866;2022-09-17T03:08:08;99794.41;;;11.52;94.85
13934;BME280;7039;52.168;9.866;2022-09-17T03:10:38;99804.13;;;11.49;95.34
13934;BME280;7039;52.168;9.866;2022-09-17T03:13:05;99801.50;;;11.49;95.61
13934;BME280;7039;52.168;9.866;2022-09-17T03:15:32;99796.47;;;11.46;95.31
13934;BME280;7039;52.168;9.866;2022-09-17T03:17:58;99790.31;;;11.47;95.02
13934;BME280;7039;52.168;9.866;2022-09-17T03:20:26;99798.34;;;11.44;94.89
13934;BME280;7039;52.168;9.866;2022-09-17T03:22:53;99790.78;;;11.40;95.27
13934;BME280;7039;52.168;9.866;2022-09-17T03:25:19;99799.97;;;11.33;95.50
13934;BME280;7039;52.168;9.866;2022-09-17T03:27:45;99800.47;;;11.25;95.66
13934;BME280;7039;52.168;9.866;2022-09-17T03:30:12;99803.06;;;11.25;95.23
13934;BME280;7039;52.168;9.866;2022-09-17T03:32:39;99804.84;;;11.24;95.06
13934;BME280;7039;52.168;9.866;2022-09-17T03:35:06;99806.72;;;11.22;95.18
13934;BME280;7039;52.168;9.866;2022-09-17T03:37:33;99807.63;;;11.21;95.34
13934;BME280;7039;52.168;9.866;2022-09-17T03:40:00;99808.88;;;11.16;95.39
13934;BME280;7039;52.168;9.866;2022-09-17T03:42:27;99808.13;;;11.14;95.42
13934;BME280;7039;52.168;9.866;2022-09-17T03:44:53;99814.41;;;11.11;95.40
13934;BME280;7039;52.168;9.866;2022-09-17T03:47:21;99816.25;;;11.09;95.23
13934;BME280;7039;52.168;9.866;2022-09-17T03:49:47;99817.66;;;11.00;94.97
13934;BME280;7039;52.168;9.866;2022-09-17T03:52:14;99822.81;;;11.02;94.25
13934;BME280;7039;52.168;9.866;2022-09-17T03:54:42;99823.44;;;11.05;94.09
13934;BME280;7039;52.168;9.866;2022-09-17T03:57:08;99822.97;;;10.99;94.20
13934;BME280;7039;52.168;9.866;2022-09-17T03:59:34;99820.06;;;11.03;93.64
13934;BME280;7039;52.168;9.866;2022-09-17T04:02:01;99833.88;;;11.05;93.76
13934;BME280;7039;52.168;9.866;2022-09-17T04:04:27;99823.84;;;10.99;93.76
13934;BME280;7039;52.168;9.866;2022-09-17T04:06:54;99834.34;;;10.98;93.85
13934;BME280;7039;52.168;9.866;2022-09-17T04:09:20;99829.06;;;10.99;93.89
13934;BME280;7039;52.168;9.866;2022-09-17T04:11:48;99830.53;;;10.89;94.26
13934;BME280;7039;52.168;9.866;2022-09-17T04:14:15;99829.91;;;10.85;94.26
13934;BME280;7039;52.168;9.866;2022-09-17T04:16:41;99836.72;;;10.88;94.07
13934;BME280;7039;52.168;9.866;2022-09-17T04:19:07;99823.81;;;10.85;94.39
13934;BME280;7039;52.168;9.866;2022-09-17T04:21:34;99821.41;;;10.82;94.37
13934;BME280;7039;52.168;9.866;2022-09-17T04:24:01;99838.94;;;10.80;94.97
13934;BME280;7039;52.168;9.866;2022-09-17T04:26:27;99841.75;;;10.77;95.24
13934;BME280;7039;52.168;9.866;2022-09-17T04:28:55;99836.03;;;10.84;94.72
13934;BME280;7039;52.168;9.866;2022-09-17T04:31:21;99852.63;;;10.83;94.94
13934;BME280;7039;52.168;9.866;2022-09-17T04:33:49;99843.31;;;10.79;94.91
13934;BME280;7039;52.168;9.866;2022-09-17T04:36:16;99850.41;;;10.77;94.91
13934;BME280;7039;52.168;9.866;2022-09-17T04:38:42;99842.78;;;10.74;95.11
13934;BME280;7039;52.168;9.866;2022-09-17T04:41:09;99852.34;;;10.74;94.98
13934;BME280;7039;52.168;9.866;2022-09-17T04:43:35;99859.53;;;10.70;95.04
13934;BME280;7039;52.168;9.866;2022-09-17T04:46:03;99841.91;;;10.74;94.91
13934;BME280;7039;52.168;9.866;2022-09-17T04:48:30;99853.28;;;10.73;94.87
13934;BME280;7039;52.168;9.866;2022-09-17T04:50:56;99856.63;;;10.75;94.11
13934;BME280;7039;52.168;9.866;2022-09-17T04:53:23;99856.44;;;10.78;93.40
13934;BME280;7039;52.168;9.866;2022-09-17T04:55:49;99856.00;;;10.85;92.92
13934;BME280;7039;52.168;9.866;2022-09-17T04:58:16;99858.41;;;10.89;92.72
13934;BME280;7039;52.168;9.866;2022-09-17T05:00:42;99860.38;;;10.99;92.37
13934;BME280;7039;52.168;9.866;2022-09-17T05:03:10;99861.66;;;11.06;92.16
13934;BME280;7039;52.168;9.866;2022-09-17T05:05:36;99868.75;;;11.04;92.00
13934;BME280;7039;52.168;9.866;2022-09-17T05:08:03;99877.47;;;11.03;92.11
13934;BME280;7039;52.168;9.866;2022-09-17T05:10:29;99874.72;;;11.06;91.91
13934;BME280;7039;52.168;9.866;2022-09-17T05:12:56;99874.50;;;11.10;91.87
13934;BME280;7039;52.168;9.866;2022-09-17T05:15:23;99872.66;;;11.12;91.65
13934;BME280;7039;52.168;9.866;2022-09-17T05:17:52;99877.88;;;11.12;90.70
13934;BME280;7039;52.168;9.866;2022-09-17T05:20:20;99882.72;;;11.18;90.88
13934;BME280;7039;52.168;9.866;2022-09-17T05:22:48;99879.44;;;11.14;90.86
13934;BME280;7039;52.168;9.866;2022-09-17T05:25:17;99889.06;;;11.14;90.88
13934;BME280;7039;52.168;9.866;2022-09-17T05:27:44;99887.72;;;11.21;91.38
13934;BME280;7039;52.168;9.866;2022-09-17T05:30:11;99886.91;;;11.20;91.44
13934;BME280;7039;52.168;9.866;2022-09-17T05:32:38;99893.53;;;11.12;92.03
13934;BME280;7039;52.168;9.866;2022-09-17T05:35:05;99892.41;;;11.16;92.40
13934;BME280;7039;52.168;9.866;2022-09-17T05:37:34;99886.81;;;11.07;92.83
13934;BME280;7039;52.168;9.866;2022-09-17T05:40:01;99888.78;;;11.04;92.52
13934;BME280;7039;52.168;9.866;2022-09-17T05:42:28;99892.16;;;11.06;92.16
13934;BME280;7039;52.168;9.866;2022-09-17T05:44:54;99910.97;;;11.11;91.10
13934;BME280;7039;52.168;9.866;2022-09-17T05:47:21;99905.28;;;11.04;88.91
13934;BME280;7039;52.168;9.866;2022-09-17T05:49:47;99899.03;;;11.07;88.87
13934;BME280;7039;52.168;9.866;2022-09-17T05:52:14;99913.44;;;11.13;88.83
13934;BME280;7039;52.168;9.866;2022-09-17T05:54:41;99912.63;;;11.12;88.23
13934;BME280;7039;52.168;9.866;2022-09-17T05:57:08;99918.88;;;11.10;88.35
13934;BME280;7039;52.168;9.866;2022-09-17T05:59:35;99905.00;;;11.09;88.72
13934;BME280;7039;52.168;9.866;2022-09-17T06:02:02;99906.38;;;11.15;88.24
13934;BME280;7039;52.168;9.866;2022-09-17T06:04:28;99914.94;;;11.17;87.78
13934;BME280;7039;52.168;9.866;2022-09-17T06:06:55;99915.31;;;11.25;87.72
13934;BME280;7039;52.168;9.866;2022-09-17T06:09:21;99915.25;;;11.26;87.56
13934;BME280;7039;52.168;9.866;2022-09-17T06:11:49;99910.94;;;11.25;87.38
13934;BME280;7039;52.168;9.866;2022-09-17T06:14:16;99916.91;;;11.27;87.31
13934;BME280;7039;52.168;9.866;2022-09-17T06:16:43;99923.41;;;11.35;87.19
13934;BME280;7039;52.168;9.866;2022-09-17T06:19:09;99923.41;;;11.35;87.17
13934;BME280;7039;52.168;9.866;2022-09-17T06:21:36;99930.34;;;11.36;86.99
13934;BME280;7039;52.168;9.866;2022-09-17T06:24:02;99930.72;;;11.29;87.08
13934;BME280;7039;52.168;9.866;2022-09-17T06:26:29;99924.00;;;11.25;87.10
13934;BME280;7039;52.168;9.866;2022-09-17T06:28:58;99928.13;;;11.15;87.15
13934;BME280;7039;52.168;9.866;2022-09-17T06:31:26;99930.63;;;11.17;86.56
13934;BME280;7039;52.168;9.866;2022-09-17T06:33:54;99932.66;;;11.12;86.55
13934;BME280;7039;52.168;9.866;2022-09-17T06:36:20;99921.41;;;11.11;86.08
13934;BME280;7039;52.168;9.866;2022-09-17T06:38:47;99935.47;;;11.08;86.74
13934;BME280;7039;52.168;9.866;2022-09-17T06:41:16;99935.28;;;10.97;86.71
13934;BME280;7039;52.168;9.866;2022-09-17T06:43:42;99940.50;;;10.97;86.75
13934;BME280;7039;52.168;9.866;2022-09-17T06:46:10;99929.03;;;11.00;86.62
13934;BME280;7039;52.168;9.866;2022-09-17T06:48:37;99929.88;;;11.00;87.22
13934;BME280;7039;52.168;9.866;2022-09-17T06:51:05;99930.53;;;11.04;87.26
13934;BME280;7039;52.168;9.866;2022-09-17T06:53:34;99931.72;;;11.13;87.07
13934;BME280;7039;52.168;9.866;2022-09-17T06:56:01;99934.34;;;11.27;87.64
13934;BME280;7039;52.168;9.866;2022-09-17T06:58:28;99948.50;;;11.37;87.65
13934;BME280;7039;52.168;9.866;2022-09-17T07:00:57;99941.06;;;11.31;87.47
13934;BME280;7039;52.168;9.866;2022-09-17T07:03:26;99926.81;;;11.22;88.07
13934;BME280;7039;52.168;9.866;2022-09-17T07:05:52;99938.75;;;11.26;88.04
13934;BME280;7039;52.168;9.866;2022-09-17T07:08:19;99936.97;;;11.27;88.91
13934;BME280;7039;52.168;9.866;2022-09-17T07:10:45;99937.03;;;11.25;88.14
13934;BME280;7039;52.168;9.866;2022-09-17T07:13:12;99940.03;;;11.34;88.19
13934;BME280;7039;52.168;9.866;2022-09-17T07:15:38;99939.09;;;11.35;87.46
13934;BME280;7039;52.168;9.866;2022-09-17T07:18:09;99941.31;;;11.41;87.12
13934;BME280;7039;52.168;9.866;2022-09-17T07:20:37;99938.91;;;11.38;87.24
13934;BME280;7039;52.168;9.866;2022-09-17T07:23:04;99936.66;;;11.46;87.81
13934;BME280;7039;52.168;9.866;2022-09-17T07:25:30;99933.16;;;11.60;87.26
13934;BME280;7039;52.168;9.866;2022-09-17T07:27:56;99933.00;;;11.63;86.60
13934;BME280;7039;52.168;9.866;2022-09-17T07:30:23;99934.16;;;11.71;85.67
13934;BME280;7039;52.168;9.866;2022-09-17T07:32:50;99932.25;;;11.61;85.75
13934;BME280;7039;52.168;9.866;2022-09-17T07:35:16;99925.34;;;11.60;85.34
13934;BME280;7039;52.168;9.866;2022-09-17T07:37:44;99925.91;;;11.50;85.66
13934;BME280;7039;52.168;9.866;2022-09-17T07:40:11;99930.84;;;11.55;86.48
13934;BME280;7039;52.168;9.866;2022-09-17T07:42:37;99951.00;;;11.67;85.73
13934;BME280;7039;52.168;9.866;2022-09-17T07:45:05;99937.94;;;11.67;84.78
13934;BME280;7039;52.168;9.866;2022-09-17T07:47:37;99945.47;;;11.72;84.70
13934;BME280;7039;52.168;9.866;2022-09-17T07:50:04;99939.47;;;11.84;85.19
13934;BME280;7039;52.168;9.866;2022-09-17T07:52:31;99937.22;;;11.93;84.03
13934;BME280;7039;52.168;9.866;2022-09-17T07:54:59;99922.28;;;11.95;82.38
13934;BME280;7039;52.168;9.866;2022-09-17T07:57:25;99929.19;;;11.96;81.25
13934;BME280;7039;52.168;9.866;2022-09-17T07:59:51;99934.94;;;12.01;80.55
13934;BME280;7039;52.168;9.866;2022-09-17T08:02:18;99948.16;;;12.12;80.27
13934;BME280;7039;52.168;9.866;2022-09-17T08:04:45;99930.22;;;12.20;80.42
13934;BME280;7039;52.168;9.866;2022-09-17T08:07:12;99928.78;;;12.29;79.78
13934;BME280;7039;52.168;9.866;2022-09-17T08:09:38;99949.81;;;12.40;80.54
13934;BME280;7039;52.168;9.866;2022-09-17T08:12:07;99931.94;;;12.47;78.70
13934;BME280;7039;52.168;9.866;2022-09-17T08:14:33;99938.72;;;12.37;78.67
13934;BME280;7039;52.168;9.866;2022-09-17T08:16:59;99933.53;;;12.49;79.71
13934;BME280;7039;52.168;9.866;2022-09-17T08:19:26;99931.94;;;12.47;78.16
13934;BME280;7039;52.168;9.866;2022-09-17T08:21:56;99930.16;;;12.60;78.53
13934;BME280;7039;52.168;9.866;2022-09-17T08:24:22;99926.19;;;12.80;78.80
13934;BME280;7039;52.168;9.866;2022-09-17T08:26:49;99928.50;;;12.85;78.34
13934;BME280;7039;52.168;9.866;2022-09-17T08:29:17;99935.44;;;12.86;76.27
13934;BME280;7039;52.168;9.866;2022-09-17T08:31:43;99926.53;;;12.88;75.99
13934;BME280;7039;52.168;9.866;2022-09-17T08:34:10;99929.34;;;12.85;74.58
13934;BME280;7039;52.168;9.866;2022-09-17T08:36:37;99926.44;;;12.90;75.86
13934;BME280;7039;52.168;9.866;2022-09-17T08:39:03;99936.59;;;12.94;75.21
13934;BME280;7039;52.168;9.866;2022-09-17T08:41:38;99933.00;;;12.95;73.27
13934;BME280;7039;52.168;9.866;2022-09-17T08:44:17;99935.81;;;13.05;73.48
13934;BME280;7039;52.168;9.866;2022-09-17T08:46:49;99933.84;;;13.22;73.07
13934;BME280;7039;52.168;9.866;2022-09-17T08:49:24;99923.88;;;13.14;74.46
13934;BME280;7039;52.168;9.866;2022-09-17T08:52:00;99938.03;;;12.99;74.26
13934;BME280;7039;52.168;9.866;2022-09-17T08:54:36;99937.00;;;12.88;74.82
13934;BME280;7039;52.168;9.866;2022-09-17T08:57:14;99937.00;;;12.88;75.00
13934;BME280;7039;52.168;9.866;2022-09-17T08:59:49;99940.75;;;13.10;74.94
13934;BME280;7039;52.168;9.866;2022-09-17T09:02:31;99934.53;;;13.24;74.42
13934;BME280;7039;52.168;9.866;2022-09-17T09:05:08;99930.78;;;13.41;73.86
13934;BME280;7039;52.168;9.866;2022-09-17T09:07:39;99914.06;;;13.67;72.99
13934;BME280;7039;52.168;9.866;2022-09-17T09:10:15;99931.69;;;13.89;72.04
13934;BME280;7039;52.168;9.866;2022-09-17T09:12:46;99930.28;;;14.20;71.75
13934;BME280;7039;52.168;9.866;2022-09-17T09:15:30;99927.31;;;14.01;70.20
13934;BME280;7039;52.168;9.866;2022-09-17T09:18:00;99918.81;;;13.86;70.35
13934;BME280;7039;52.168;9.866;2022-09-17T09:20:32;99919.88;;;13.84;70.48
13934;BME280;7039;52.168;9.866;2022-09-17T09:23:07;99916.13;;;13.75;71.15
13934;BME280;7039;52.168;9.866;2022-09-17T09:25:41;99914.66;;;13.71;70.85
13934;BME280;7039;52.168;9.866;2022-09-17T09:28:41;99914.91;;;13.68;71.19
13934;BME280;7039;52.168;9.866;2022-09-17T09:31:33;99912.19;;;13.81;69.84
13934;BME280;7039;52.168;9.866;2022-09-17T09:34:04;99901.34;;;13.74;69.57
13934;BME280;7039;52.168;9.866;2022-09-17T09:36:32;99915.00;;;13.90;69.69
13934;BME280;7039;52.168;9.866;2022-09-17T09:39:01;99906.56;;;13.98;70.14
13934;BME280;7039;52.168;9.866;2022-09-17T09:41:31;99938.59;;;13.90;69.98
13934;BME280;7039;52.168;9.866;2022-09-17T09:44:03;99909.69;;;14.03;70.32
13934;BME280;7039;52.168;9.866;2022-09-17T09:46:40;99912.19;;;14.29;69.36
13934;BME280;7039;52.168;9.866;2022-09-17T09:49:21;99908.03;;;14.37;68.39
13934;BME280;7039;52.168;9.866;2022-09-17T09:52:01;99909.00;;;14.48;65.78
13934;BME280;7039;52.168;9.866;2022-09-17T09:54:43;99901.72;;;14.40;65.81
13934;BME280;7039;52.168;9.866;2022-09-17T09:57:21;99910.19;;;14.44;63.74
13934;BME280;7039;52.168;9.866;2022-09-17T10:00:20;99904.78;;;14.80;63.93
13934;BME280;7039;52.168;9.866;2022-09-17T10:02:52;99912.56;;;15.04;63.63
13934;BME280;7039;52.168;9.866;2022-09-17T10:05:19;99914.94;;;14.96;61.31
13934;BME280;7039;52.168;9.866;2022-09-17T10:07:46;99912.09;;;14.88;63.04
13934;BME280;7039;52.168;9.866;2022-09-17T10:10:12;99882.94;;;14.69;61.60
13934;BME280;7039;52.168;9.866;2022-09-17T10:12:39;99901.75;;;14.51;61.67
13934;BME280;7039;52.168;9.866;2022-09-17T10:15:23;99907.16;;;14.26;61.44
13934;BME280;7039;52.168;9.866;2022-09-17T10:18:10;99914.63;;;14.19;60.04
13934;BME280;7039;52.168;9.866;2022-09-17T10:20:48;99897.81;;;14.10;59.04
13934;BME280;7039;52.168;9.866;2022-09-17T10:23:15;99907.78;;;14.29;60.01
13934;BME280;7039;52.168;9.866;2022-09-17T10:25:42;99906.38;;;14.72;60.70
13934;BME280;7039;52.168;9.866;2022-09-17T10:28:23;99899.09;;;14.98;58.26
13934;BME280;7039;52.168;9.866;2022-09-17T10:30:55;99907.06;;;15.30;59.30
13934;BME280;7039;52.168;9.866;2022-09-17T10:33:24;99904.19;;;15.44;57.57
13934;BME280;7039;52.168;9.866;2022-09-17T10:36:01;99911.03;;;15.13;55.58
13934;BME280;7039;52.168;9.866;2022-09-17T10:38:31;99904.22;;;15.11;55.42
13934;BME280;7039;52.168;9.866;2022-09-17T10:41:21;99895.88;;;14.94;57.22
13934;BME280;7039;52.168;9.866;2022-09-17T10:43:50;99899.75;;;14.55;56.67
13934;BME280;7039;52.168;9.866;2022-09-17T10:46:19;99908.81;;;14.62;58.04
13934;BME280;7039;52.168;9.866;2022-09-17T10:48:56;99904.53;;;14.61;57.84
13934;BME280;7039;52.168;9.866;2022-09-17T10:51:25;99891.34;;;14.74;58.65
13934;BME280;7039;52.168;9.866;2022-09-17T10:54:04;99904.44;;;15.08;59.80
13934;BME280;7039;52.168;9.866;2022-09-17T10:56:34;99896.91;;;15.37;58.45
13934;BME280;7039;52.168;9.866;2022-09-17T10:59:14;99903.72;;;15.39;56.99
13934;BME280;7039;52.168;9.866;2022-09-17T11:01:57;99890.66;;;15.60;56.40
13934;BME280;7039;52.168;9.866;2022-09-17T11:04:37;99881.88;;;15.82;57.03
13934;BME280;7039;52.168;9.866;2022-09-17T11:07:26;99887.94;;;15.39;55.66
13934;BME280;7039;52.168;9.866;2022-09-17T11:10:03;99873.28;;;15.80;56.46
13934;BME280;7039;52.168;9.866;2022-09-17T11:12:49;99868.75;;;16.15;53.20
13934;BME280;7039;52.168;9.866;2022-09-17T11:15:29;99884.28;;;15.85;50.50
13934;BME280;7039;52.168;9.866;2022-09-17T11:18:06;99875.25;;;15.67;50.93
13934;BME280;7039;52.168;9.866;2022-09-17T11:20:56;99872.53;;;15.35;53.02
13934;BME280;7039;52.168;9.866;2022-09-17T11:23:41;99859.28;;;15.48;53.64
13934;BME280;7039;52.168;9.866;2022-09-17T11:26:21;99870.22;;;15.75;54.22
13934;BME280;7039;52.168;9.866;2022-09-17T11:28:59;99861.91;;;15.91;53.14
13934;BME280;7039;52.168;9.866;2022-09-17T11:31:33;99859.03;;;15.94;53.17
13934;BME280;7039;52.168;9.866;2022-09-17T11:34:29;99855.78;;;15.58;51.67
13934;BME280;7039;52.168;9.866;2022-09-17T11:37:04;99847.63;;;15.61;52.19
13934;BME280;7039;52.168;9.866;2022-09-17T11:39:40;99845.00;;;15.73;51.17
13934;BME280;7039;52.168;9.866;2022-09-17T11:42:13;99843.22;;;15.62;50.67
13934;BME280;7039;52.168;9.866;2022-09-17T11:44:44;99877.78;;;15.46;51.92
13934;BME280;7039;52.168;9.866;2022-09-17T11:47:14;99846.13;;;15.48;53.09
13934;BME280;7039;52.168;9.866;2022-09-17T11:49:46;99847.09;;;15.47;53.90
13934;BME280;7039;52.168;9.866;2022-09-17T11:52:20;99840.81;;;15.27;53.22
13934;BME280;7039;52.168;9.866;2022-09-17T11:54:51;99852.41;;;15.13;54.04
13934;BME280;7039;52.168;9.866;2022-09-17T11:57:21;99839.28;;;15.13;54.60
13934;BME280;7039;52.168;9.866;2022-09-17T11:59:53;99845.69;;;15.31;55.63
13934;BME280;7039;52.168;9.866;2022-09-17T12:02:25;99842.09;;;15.32;55.28
13934;BME280;7039;52.168;9.866;2022-09-17T12:04:57;99842.72;;;15.24;54.40
13934;BME280;7039;52.168;9.866;2022-09-17T12:07:39;99843.22;;;15.07;54.71
13934;BME280;7039;52.168;9.866;2022-09-17T12:10:34;99853.13;;;15.26;55.10
13934;BME280;7039;52.168;9.866;2022-09-17T12:13:09;99834.75;;;15.03;55.78
13934;BME280;7039;52.168;9.866;2022-09-17T12:15:41;99851.34;;;15.04;55.44
13934;BME280;7039;52.168;9.866;2022-09-17T12:18:18;99837.38;;;14.92;55.19
13934;BME280;7039;52.168;9.866;2022-09-17T12:20:49;99840.59;;;14.96;56.28
13934;BME280;7039;52.168;9.866;2022-09-17T12:23:29;99838.06;;;15.17;56.16
13934;BME280;7039;52.168;9.866;2022-09-17T12:26:05;99842.47;;;15.16;55.85
13934;BME280;7039;52.168;9.866;2022-09-17T12:28:40;99852.50;;;15.22;55.70
13934;BME280;7039;52.168;9.866;2022-09-17T12:31:14;99855.03;;;15.13;55.58
13934;BME280;7039;52.168;9.866;2022-09-17T12:33:50;99842.84;;;15.12;55.01
13934;BME280;7039;52.168;9.866;2022-09-17T12:36:32;99829.38;;;15.05;53.64
13934;BME280;7039;52.168;9.866;2022-09-17T12:42:19;99811.34;;;14.78;53.93
13934;BME280;7039;52.168;9.866;2022-09-17T12:45:02;99820.19;;;14.66;54.53
13934;BME280;7039;52.168;9.866;2022-09-17T12:47:46;99812.53;;;14.51;55.94
13934;BME280;7039;52.168;9.866;2022-09-17T12:50:20;99820.09;;;14.56;54.64
13934;BME280;7039;52.168;9.866;2022-09-17T12:53:01;99803.38;;;14.68;55.31
13934;BME280;7039;52.168;9.866;2022-09-17T12:55:39;99803.47;;;14.78;55.51
13934;BME280;7039;52.168;9.866;2022-09-17T12:58:20;99808.50;;;14.70;54.81
13934;BME280;7039;52.168;9.866;2022-09-17T13:00:54;99802.97;;;14.50;54.70
13934;BME280;7039;52.168;9.866;2022-09-17T13:03:26;99800.69;;;14.23;56.92
13934;BME280;7039;52.168;9.866;2022-09-17T13:06:15;99819.16;;;13.01;66.50
13934;BME280;7039;52.168;9.866;2022-09-17T13:12:02;99864.91;;;11.24;81.11
13934;BME280;7039;52.168;9.866;2022-09-17T13:14:50;99845.53;;;10.71;81.39
13934;BME280;7039;52.168;9.866;2022-09-17T13:17:23;99845.53;;;10.71;84.00
13934;BME280;7039;52.168;9.866;2022-09-17T13:20:00;99838.28;;;10.76;82.27
13934;BME280;7039;52.168;9.866;2022-09-17T13:22:30;99852.53;;;10.99;82.11
13934;BME280;7039;52.168;9.866;2022-09-17T13:25:04;99855.63;;;11.33;83.17
13934;BME280;7039;52.168;9.866;2022-09-17T13:27:32;99853.09;;;11.73;80.56
13934;BME280;7039;52.168;9.866;2022-09-17T13:30:02;99847.03;;;12.00;79.69
13934;BME280;7039;52.168;9.866;2022-09-17T13:32:45;99851.91;;;12.57;78.89
13934;BME280;7039;52.168;9.866;2022-09-17T13:35:45;99851.31;;;13.03;77.05
13934;BME280;7039;52.168;9.866;2022-09-17T13:38:11;99845.09;;;13.30;76.33
13934;BME280;7039;52.168;9.866;2022-09-17T13:40:39;99836.06;;;13.47;71.67
13934;BME280;7039;52.168;9.866;2022-09-17T13:43:07;99838.47;;;13.37;71.13
13934;BME280;7039;52.168;9.866;2022-09-17T13:46:06;99833.81;;;13.53;73.06